createdAt,value
2018-06-16T00:00:12.280Z,0
2018-06-16T00:01:22.437Z,0
2018-06-16T00:02:32.619Z,0
2018-06-16T00:03:43.048Z,0
2018-06-16T00:04:53.212Z,0
2018-06-16T00:06:03.354Z,0
2018-06-16T00:07:13.616Z,0
2018-06-16T00:08:23.779Z,0
2018-06-16T00:09:33.963Z,0
2018-06-16T00:10:44.195Z,0
2018-06-16T00:11:54.447Z,0
2018-06-16T00:13:04.354Z,0
2018-06-16T00:14:14.522Z,0
2018-06-16T00:15:24.685Z,0
2018-06-16T00:16:34.833Z,0
2018-06-16T00:17:44.979Z,0
2018-06-16T00:18:55.189Z,0
2018-06-16T00:20:05.422Z,0
2018-06-16T00:21:15.735Z,0
2018-06-16T00:22:25.926Z,0
2018-06-16T00:23:36.204Z,0
2018-06-16T00:24:46.412Z,0
2018-06-16T00:25:56.204Z,0
2018-06-16T00:27:06.560Z,0
2018-06-16T00:28:16.737Z,0
2018-06-16T00:29:26.883Z,0
2018-06-16T00:30:37.040Z,0
2018-06-16T00:31:47.211Z,0
2018-06-16T00:32:57.443Z,0
2018-06-16T00:34:07.648Z,0
2018-06-16T00:35:17.824Z,0
2018-06-16T00:36:27.988Z,0
2018-06-16T00:37:38.270Z,0
2018-06-16T00:38:48.164Z,0
2018-06-16T00:39:58.549Z,0
2018-06-16T00:41:08.697Z,0
2018-06-16T00:42:18.922Z,0
2018-06-16T00:43:29.071Z,0
2018-06-16T00:44:39.239Z,0
2018-06-16T00:45:49.461Z,0
2018-06-16T00:46:59.626Z,0
2018-06-16T00:48:09.896Z,0
2018-06-16T00:49:20.083Z,0
2018-06-16T00:50:30.447Z,0
2018-06-16T00:51:40.605Z,0
2018-06-16T00:52:50.777Z,0
2018-06-16T00:54:01.067Z,0
2018-06-16T00:55:11.225Z,0
2018-06-16T00:56:21.423Z,0
2018-06-16T00:57:31.656Z,0
2018-06-16T00:58:41.890Z,0
2018-06-16T00:59:52.074Z,0
2018-06-16T01:01:02.323Z,0
2018-06-16T01:02:12.654Z,0
2018-06-16T01:03:22.791Z,0
2018-06-16T01:04:33.103Z,0
2018-06-16T01:05:43.274Z,0
2018-06-16T01:06:53.427Z,0
2018-06-16T01:08:03.649Z,0
2018-06-16T01:09:13.956Z,0
2018-06-16T01:10:24.152Z,0
2018-06-16T01:11:34.852Z,0
2018-06-16T01:12:45.027Z,0
2018-06-16T01:13:55.433Z,0
2018-06-16T01:15:05.599Z,0
2018-06-16T01:16:15.816Z,0
2018-06-16T01:17:26.060Z,0
2018-06-16T01:18:36.236Z,0
2018-06-16T01:19:46.120Z,0
2018-06-16T01:20:56.593Z,0
2018-06-16T01:22:06.787Z,0
2018-06-16T01:23:16.937Z,0
2018-06-16T01:24:27.194Z,0
2018-06-16T01:25:37.360Z,0
2018-06-16T01:26:48.520Z,0
2018-06-16T01:27:58.673Z,0
2018-06-16T01:29:08.859Z,0
2018-06-16T01:30:19.018Z,0
2018-06-16T01:31:29.151Z,0
2018-06-16T01:32:39.302Z,0
2018-06-16T01:33:49.449Z,0
2018-06-16T01:34:59.659Z,0
2018-06-16T01:36:09.969Z,0
2018-06-16T01:37:20.257Z,0
2018-06-16T01:38:30.420Z,0
2018-06-16T01:39:40.619Z,0
2018-06-16T01:40:50.820Z,0
2018-06-16T01:42:00.984Z,0
2018-06-16T01:43:11.348Z,0
2018-06-16T01:44:21.507Z,0
2018-06-16T01:45:31.742Z,0
2018-06-16T01:46:41.989Z,0
2018-06-16T01:47:52.226Z,0
2018-06-16T01:49:02.574Z,0
2018-06-16T01:50:12.763Z,0
2018-06-16T01:51:22.931Z,0
2018-06-16T01:52:33.089Z,0
2018-06-16T01:53:43.226Z,0
2018-06-16T01:54:53.613Z,0
2018-06-16T01:56:03.824Z,0
2018-06-16T01:57:13.956Z,0
2018-06-16T01:58:24.176Z,0
2018-06-16T01:59:34.409Z,0
2018-06-16T02:00:44.623Z,0
2018-06-16T02:01:54.873Z,0
2018-06-16T02:03:05.026Z,0
2018-06-16T02:04:15.191Z,0
2018-06-16T02:05:25.126Z,0
2018-06-16T02:06:35.463Z,0
2018-06-16T02:07:45.621Z,0
2018-06-16T02:08:55.795Z,0
2018-06-16T02:10:05.973Z,0
2018-06-16T02:11:16.271Z,0
2018-06-16T02:12:26.182Z,0
2018-06-16T02:13:36.407Z,0
2018-06-16T02:14:46.567Z,0
2018-06-16T02:15:56.993Z,0
2018-06-16T02:17:07.345Z,0
2018-06-16T02:18:17.502Z,0
2018-06-16T02:19:27.842Z,0
2018-06-16T02:20:37.986Z,0
2018-06-16T02:21:48.335Z,0
2018-06-16T02:22:58.476Z,0
2018-06-16T02:24:08.609Z,0
2018-06-16T02:25:18.793Z,0
2018-06-16T02:26:29.009Z,0
2018-06-16T02:27:40.190Z,0
2018-06-16T02:28:50.327Z,0
2018-06-16T02:30:00.629Z,0
2018-06-16T02:31:10.833Z,0
2018-06-16T02:32:21.069Z,0
2018-06-16T02:33:31.231Z,0
2018-06-16T02:34:41.438Z,0
2018-06-16T02:35:51.413Z,0
2018-06-16T02:37:01.561Z,0
2018-06-16T02:38:11.787Z,0
2018-06-16T02:39:21.970Z,0
2018-06-16T02:40:32.237Z,0
2018-06-16T02:41:42.505Z,0
2018-06-16T02:42:52.669Z,0
2018-06-16T02:44:03.056Z,0
2018-06-16T02:45:13.232Z,0
2018-06-16T02:46:23.370Z,0
2018-06-16T02:47:33.567Z,0
2018-06-16T02:48:43.705Z,0
2018-06-16T02:49:53.926Z,5
2018-06-16T02:51:04.218Z,5
2018-06-16T02:52:14.650Z,5
2018-06-16T02:53:24.773Z,5
2018-06-16T02:54:34.941Z,5
2018-06-16T02:55:45.074Z,5
2018-06-16T02:56:55.208Z,5
2018-06-16T02:58:05.442Z,5
2018-06-16T02:59:15.638Z,5
2018-06-16T03:00:25.881Z,5
2018-06-16T03:01:36.142Z,5
2018-06-16T03:02:46.815Z,10
2018-06-16T03:03:57.165Z,10
2018-06-16T03:05:07.322Z,10
2018-06-16T03:06:17.612Z,10
2018-06-16T03:07:27.387Z,10
2018-06-16T03:08:37.553Z,10
2018-06-16T03:09:47.711Z,15
2018-06-16T03:10:57.864Z,15
2018-06-16T03:12:08.191Z,15
2018-06-16T03:13:18.547Z,15
2018-06-16T03:14:28.709Z,15
2018-06-16T03:15:38.850Z,20
2018-06-16T03:16:48.997Z,20
2018-06-16T03:17:59.330Z,20
2018-06-16T03:19:09.491Z,20
2018-06-16T03:20:19.660Z,20
2018-06-16T03:21:29.870Z,20
2018-06-16T03:22:40.154Z,25
2018-06-16T03:23:50.394Z,25
2018-06-16T03:25:00.672Z,25
2018-06-16T03:26:10.868Z,25
2018-06-16T03:27:21.029Z,25
2018-06-16T03:28:31.184Z,25
2018-06-16T03:29:41.448Z,30
2018-06-16T03:30:51.718Z,30
2018-06-16T03:32:01.929Z,30
2018-06-16T03:33:12.300Z,30
2018-06-16T03:34:22.502Z,30
2018-06-16T03:35:32.677Z,35
2018-06-16T03:36:43.035Z,35
2018-06-16T03:37:53.191Z,35
2018-06-16T03:39:03.117Z,35
2018-06-16T03:40:13.431Z,35
2018-06-16T03:41:23.646Z,40
2018-06-16T03:42:33.828Z,40
2018-06-16T03:43:43.807Z,40
2018-06-16T03:44:53.950Z,40
2018-06-16T03:46:03.951Z,40
2018-06-16T03:47:14.164Z,45
2018-06-16T03:48:24.300Z,45
2018-06-16T03:49:34.460Z,45
2018-06-16T03:50:44.591Z,45
2018-06-16T03:51:54.763Z,45
2018-06-16T03:53:04.924Z,45
2018-06-16T03:54:15.100Z,50
2018-06-16T03:55:25.251Z,50
2018-06-16T03:56:35.634Z,50
2018-06-16T03:57:45.770Z,50
2018-06-16T03:58:55.960Z,50
2018-06-16T04:00:06.133Z,50
2018-06-16T04:01:16.315Z,55
2018-06-16T04:02:26.447Z,55
2018-06-16T04:03:36.608Z,55
2018-06-16T04:04:46.747Z,55
2018-06-16T04:05:56.957Z,55
2018-06-16T04:07:07.127Z,60
2018-06-16T04:08:17.549Z,60
2018-06-16T04:09:27.678Z,55
2018-06-16T04:10:37.811Z,55
2018-06-16T04:11:47.956Z,55
2018-06-16T04:12:58.170Z,55
2018-06-16T04:14:08.405Z,55
2018-06-16T04:15:18.613Z,60
2018-06-16T04:16:28.782Z,60
2018-06-16T04:17:38.920Z,60
2018-06-16T04:18:49.035Z,65
2018-06-16T04:19:59.162Z,65
2018-06-16T04:21:09.365Z,65
2018-06-16T04:22:19.519Z,65
2018-06-16T04:23:29.654Z,65
2018-06-16T04:24:39.784Z,65
2018-06-16T04:25:49.920Z,70
2018-06-16T04:27:00.093Z,70
2018-06-16T04:28:10.322Z,70
2018-06-16T04:29:20.462Z,75
2018-06-16T04:30:30.338Z,80
2018-06-16T04:31:40.476Z,80
2018-06-16T04:32:50.700Z,80
2018-06-16T04:34:00.848Z,85
2018-06-16T04:35:11.028Z,85
2018-06-16T04:36:21.297Z,85
2018-06-16T04:37:31.469Z,90
2018-06-16T04:38:41.658Z,90
2018-06-16T04:39:51.941Z,90
2018-06-16T04:41:02.146Z,95
2018-06-16T04:42:12.396Z,95
2018-06-16T04:43:22.621Z,100
2018-06-16T04:44:32.402Z,100
2018-06-16T04:45:43.196Z,100
2018-06-16T04:46:53.422Z,105
2018-06-16T04:48:04.065Z,105
2018-06-16T04:49:14.195Z,105
2018-06-16T04:50:24.467Z,110
2018-06-16T04:51:34.639Z,110
2018-06-16T04:52:44.794Z,110
2018-06-16T04:53:54.970Z,115
2018-06-16T04:55:05.199Z,120
2018-06-16T04:56:15.379Z,125
2018-06-16T04:57:25.725Z,130
2018-06-16T04:58:35.971Z,135
2018-06-16T04:59:46.133Z,135
2018-06-16T05:00:56.412Z,135
2018-06-16T05:02:06.611Z,140
2018-06-16T05:03:16.759Z,140
2018-06-16T05:04:26.899Z,140
2018-06-16T05:05:37.062Z,155
2018-06-16T05:06:47.191Z,150
2018-06-16T05:07:57.370Z,150
2018-06-16T05:09:07.244Z,150
2018-06-16T05:10:17.360Z,155
2018-06-16T05:11:27.489Z,155
2018-06-16T05:12:37.722Z,160
2018-06-16T05:13:47.860Z,160
2018-06-16T05:14:58.099Z,165
2018-06-16T05:16:08.269Z,170
2018-06-16T05:17:18.504Z,175
2018-06-16T05:18:28.638Z,180
2018-06-16T05:19:38.821Z,185
2018-06-16T05:20:49.222Z,190
2018-06-16T05:21:59.668Z,190
2018-06-16T05:23:09.821Z,195
2018-06-16T05:24:20.000Z,195
2018-06-16T05:25:30.133Z,200
2018-06-16T05:26:40.272Z,205
2018-06-16T05:27:50.551Z,210
2018-06-16T05:29:00.724Z,210
2018-06-16T05:30:10.893Z,215
2018-06-16T05:31:21.081Z,215
2018-06-16T05:32:30.966Z,220
2018-06-16T05:33:41.160Z,220
2018-06-16T05:34:51.354Z,220
2018-06-16T05:36:01.512Z,220
2018-06-16T05:37:11.763Z,215
2018-06-16T05:38:22.049Z,215
2018-06-16T05:39:32.265Z,215
2018-06-16T05:40:42.665Z,220
2018-06-16T05:41:52.822Z,225
2018-06-16T05:43:02.988Z,235
2018-06-16T05:44:13.369Z,235
2018-06-16T05:45:23.542Z,225
2018-06-16T05:46:33.711Z,205
2018-06-16T05:47:43.866Z,190
2018-06-16T05:48:54.343Z,215
2018-06-16T05:50:04.654Z,220
2018-06-16T05:51:14.824Z,210
2018-06-16T05:52:24.978Z,215
2018-06-16T05:53:35.142Z,200
2018-06-16T05:54:45.293Z,205
2018-06-16T05:55:55.461Z,200
2018-06-16T05:57:05.683Z,195
2018-06-16T05:58:15.890Z,195
2018-06-16T05:59:26.027Z,195
2018-06-16T06:00:36.500Z,190
2018-06-16T06:01:46.872Z,190
2018-06-16T06:02:57.025Z,190
2018-06-16T06:04:07.211Z,195
2018-06-16T06:05:17.380Z,200
2018-06-16T06:06:27.377Z,205
2018-06-16T06:07:37.662Z,205
2018-06-16T06:08:47.856Z,200
2018-06-16T06:09:58.006Z,200
2018-06-16T06:11:08.175Z,200
2018-06-16T06:12:18.337Z,200
2018-06-16T06:13:28.589Z,195
2018-06-16T06:14:38.827Z,200
2018-06-16T06:15:49.655Z,205
2018-06-16T06:16:59.938Z,215
2018-06-16T06:18:09.626Z,225
2018-06-16T06:19:19.819Z,225
2018-06-16T06:20:29.705Z,220
2018-06-16T06:21:39.881Z,215
2018-06-16T06:22:50.028Z,220
2018-06-16T06:24:00.188Z,230
2018-06-16T06:25:10.455Z,230
2018-06-16T06:26:20.656Z,230
2018-06-16T06:27:31.062Z,225
2018-06-16T06:28:41.259Z,230
2018-06-16T06:29:51.471Z,225
2018-06-16T06:31:01.658Z,225
2018-06-16T06:32:12.104Z,230
2018-06-16T06:33:22.387Z,225
2018-06-16T06:34:32.567Z,220
2018-06-16T06:35:42.448Z,230
2018-06-16T06:36:52.694Z,225
2018-06-16T06:38:02.857Z,225
2018-06-16T06:39:12.761Z,230
2018-06-16T06:40:22.885Z,230
2018-06-16T06:41:33.117Z,230
2018-06-16T06:42:43.393Z,230
2018-06-16T06:43:53.597Z,235
2018-06-16T06:45:03.836Z,230
2018-06-16T06:46:14.032Z,220
2018-06-16T06:47:24.196Z,220
2018-06-16T06:48:35.421Z,215
2018-06-16T06:49:45.628Z,210
2018-06-16T06:50:55.426Z,210
2018-06-16T06:52:05.626Z,215
2018-06-16T06:53:15.788Z,215
2018-06-16T06:54:25.985Z,220
2018-06-16T06:55:36.197Z,220
2018-06-16T06:56:46.447Z,225
2018-06-16T06:57:56.888Z,245
2018-06-16T06:59:07.150Z,250
2018-06-16T07:00:17.342Z,255
2018-06-16T07:01:27.524Z,255
2018-06-16T07:02:37.702Z,255
2018-06-16T07:03:47.895Z,250
2018-06-16T07:04:58.393Z,250
2018-06-16T07:06:08.885Z,250
2018-06-16T07:07:19.039Z,250
2018-06-16T07:08:29.187Z,250
2018-06-16T07:09:39.508Z,255
2018-06-16T07:10:50.303Z,255
2018-06-16T07:12:00.268Z,255
2018-06-16T07:13:10.459Z,255
2018-06-16T07:14:20.671Z,250
2018-06-16T07:15:30.844Z,250
2018-06-16T07:16:41.043Z,250
2018-06-16T07:17:51.345Z,255
2018-06-16T07:19:01.483Z,255
2018-06-16T07:20:11.653Z,260
2018-06-16T07:21:22.016Z,260
2018-06-16T07:22:32.293Z,260
2018-06-16T07:23:42.355Z,265
2018-06-16T07:24:52.590Z,275
2018-06-16T07:26:02.832Z,280
2018-06-16T07:27:13.398Z,285
2018-06-16T07:28:23.602Z,285
2018-06-16T07:29:33.915Z,290
2018-06-16T07:30:44.097Z,290
2018-06-16T07:31:54.275Z,295
2018-06-16T07:33:04.437Z,300
2018-06-16T07:34:14.615Z,300
2018-06-16T07:35:24.550Z,300
2018-06-16T07:36:34.740Z,300
2018-06-16T07:37:45.219Z,310
2018-06-16T07:38:55.624Z,310
2018-06-16T07:40:05.772Z,310
2018-06-16T07:41:16.017Z,320
2018-06-16T07:42:26.196Z,325
2018-06-16T07:43:36.384Z,325
2018-06-16T07:44:46.551Z,330
2018-06-16T07:45:57.273Z,335
2018-06-16T07:47:07.470Z,330
2018-06-16T07:48:17.782Z,340
2018-06-16T07:49:27.997Z,340
2018-06-16T07:50:38.195Z,345
2018-06-16T07:51:48.484Z,345
2018-06-16T07:52:58.685Z,345
2018-06-16T07:54:08.497Z,340
2018-06-16T07:55:18.670Z,340
2018-06-16T07:56:28.824Z,340
2018-06-16T07:57:38.975Z,345
2018-06-16T07:58:49.143Z,350
2018-06-16T07:59:59.317Z,380
2018-06-16T08:01:09.497Z,390
2018-06-16T08:02:19.660Z,395
2018-06-16T08:03:29.837Z,395
2018-06-16T08:04:40.013Z,395
2018-06-16T08:05:50.248Z,405
2018-06-16T08:07:00.427Z,415
2018-06-16T08:08:10.600Z,420
2018-06-16T08:09:20.846Z,430
2018-06-16T08:10:30.773Z,445
2018-06-16T08:11:41.084Z,460
2018-06-16T08:12:51.563Z,485
2018-06-16T08:14:01.772Z,495
2018-06-16T08:15:11.931Z,505
2018-06-16T08:16:22.144Z,515
2018-06-16T08:17:32.289Z,550
2018-06-16T08:18:42.484Z,570
2018-06-16T08:19:52.430Z,575
2018-06-16T08:21:02.568Z,580
2018-06-16T08:22:12.744Z,605
2018-06-16T08:23:22.921Z,650
2018-06-16T08:24:33.031Z,670
2018-06-16T08:25:43.237Z,640
2018-06-16T08:26:53.431Z,675
2018-06-16T08:28:03.586Z,685
2018-06-16T08:29:13.748Z,720
2018-06-16T08:30:23.948Z,755
2018-06-16T08:31:34.316Z,760
2018-06-16T08:32:44.586Z,775
2018-06-16T08:33:54.982Z,790
2018-06-16T08:35:05.144Z,800
2018-06-16T08:36:15.299Z,815
2018-06-16T08:37:25.729Z,845
2018-06-16T08:38:35.900Z,865
2018-06-16T08:39:46.059Z,850
2018-06-16T08:40:56.211Z,830
2018-06-16T08:42:06.461Z,810
2018-06-16T08:43:17.269Z,775
2018-06-16T08:44:27.551Z,780
2018-06-16T08:45:37.721Z,785
2018-06-16T08:46:47.887Z,785
2018-06-16T08:47:58.114Z,765
2018-06-16T08:49:08.754Z,775
2018-06-16T08:50:18.960Z,790
2018-06-16T08:51:29.312Z,780
2018-06-16T08:52:39.501Z,740
2018-06-16T08:53:49.405Z,745
2018-06-16T08:54:59.614Z,720
2018-06-16T08:56:09.761Z,730
2018-06-16T08:57:19.568Z,735
2018-06-16T08:58:29.732Z,725
2018-06-16T08:59:39.912Z,735
2018-06-16T09:00:50.215Z,730
2018-06-16T09:02:00.475Z,735
2018-06-16T09:03:10.775Z,745
2018-06-16T09:04:21.052Z,790
2018-06-16T09:05:31.326Z,790
2018-06-16T09:06:41.811Z,820
2018-06-16T09:07:52.005Z,895
2018-06-16T09:09:02.206Z,1155
2018-06-16T09:10:12.426Z,1000
2018-06-16T09:11:22.598Z,990
2018-06-16T09:12:32.742Z,955
2018-06-16T09:13:42.979Z,940
2018-06-16T09:14:53.187Z,890
2018-06-16T09:16:03.589Z,855
2018-06-16T09:17:13.847Z,850
2018-06-16T09:18:24.184Z,855
2018-06-16T09:19:34.373Z,905
2018-06-16T09:20:44.692Z,950
2018-06-16T09:21:54.908Z,1005
2018-06-16T09:23:05.101Z,1055
2018-06-16T09:24:15.188Z,1195
2018-06-16T09:25:25.387Z,1250
2018-06-16T09:26:35.603Z,955
2018-06-16T09:27:45.800Z,950
2018-06-16T09:28:55.979Z,1305
2018-06-16T09:30:06.174Z,1150
2018-06-16T09:31:16.794Z,1195
2018-06-16T09:32:26.687Z,1170
2018-06-16T09:33:36.875Z,1250
2018-06-16T09:34:47.074Z,1220
2018-06-16T09:35:57.264Z,1300
2018-06-16T09:37:07.493Z,1560
2018-06-16T09:38:17.714Z,1030
2018-06-16T09:39:27.900Z,985
2018-06-16T09:40:38.066Z,1070
2018-06-16T09:41:48.301Z,1005
2018-06-16T09:42:58.113Z,1115
2018-06-16T09:44:08.286Z,1040
2018-06-16T09:45:18.512Z,835
2018-06-16T09:46:28.683Z,1000
2018-06-16T09:47:38.908Z,805
2018-06-16T09:48:49.125Z,845
2018-06-16T09:49:59.332Z,880
2018-06-16T09:51:09.851Z,810
2018-06-16T09:52:20.074Z,775
2018-06-16T09:54:02.154Z,985
2018-06-16T09:55:12.671Z,730
2018-06-16T09:56:22.906Z,605
2018-06-16T09:57:33.206Z,560
2018-06-16T09:58:43.410Z,530
2018-06-16T09:59:53.650Z,495
2018-06-16T10:01:03.999Z,485
2018-06-16T10:02:14.373Z,475
2018-06-16T10:03:25.039Z,455
2018-06-16T10:04:35.321Z,445
2018-06-16T10:05:45.509Z,430
2018-06-16T10:06:55.703Z,425
2018-06-16T10:08:06.177Z,435
2018-06-16T10:09:16.532Z,470
2018-06-16T10:10:26.786Z,510
2018-06-16T10:11:36.731Z,570
2018-06-16T10:12:46.955Z,610
2018-06-16T10:13:56.953Z,645
2018-06-16T10:15:07.177Z,660
2018-06-16T10:16:17.382Z,675
2018-06-16T10:17:27.645Z,670
2018-06-16T10:18:37.867Z,660
2018-06-16T10:19:48.060Z,730
2018-06-16T10:20:58.009Z,765
2018-06-16T10:22:08.243Z,845
2018-06-16T10:23:18.430Z,955
2018-06-16T10:24:28.612Z,1175
2018-06-16T10:25:38.831Z,1290
2018-06-16T10:26:49.041Z,1315
2018-06-16T10:27:59.234Z,1365
2018-06-16T10:29:09.721Z,1480
2018-06-16T10:30:20.037Z,1580
2018-06-16T10:31:30.229Z,1350
2018-06-16T10:32:40.058Z,1220
2018-06-16T10:33:50.306Z,1145
2018-06-16T10:35:00.486Z,1215
2018-06-16T10:36:10.696Z,1170
2018-06-16T10:37:20.915Z,1445
2018-06-16T10:38:31.203Z,1515
2018-06-16T10:39:41.419Z,1525
2018-06-16T10:40:51.647Z,1415
2018-06-16T10:42:01.864Z,1550
2018-06-16T10:43:12.987Z,2920
2018-06-16T10:44:23.221Z,2690
2018-06-16T10:45:33.512Z,1375
2018-06-16T10:46:43.694Z,1570
2018-06-16T10:47:53.676Z,895
2018-06-16T10:49:04.928Z,1030
2018-06-16T10:50:15.186Z,870
2018-06-16T10:51:25.459Z,905
2018-06-16T10:52:35.704Z,1275
2018-06-16T10:53:45.933Z,1615
2018-06-16T10:54:56.176Z,1335
2018-06-16T10:56:06.464Z,1295
2018-06-16T10:57:16.706Z,1260
2018-06-16T10:58:26.901Z,1330
2018-06-16T10:59:37.104Z,1095
2018-06-16T11:00:47.390Z,2580
2018-06-16T11:01:57.628Z,2495
2018-06-16T11:03:07.832Z,2320
2018-06-16T11:04:18.015Z,2890
2018-06-16T11:05:28.228Z,2985
2018-06-16T11:06:38.421Z,960
2018-06-16T11:07:48.659Z,900
2018-06-16T11:08:58.853Z,2035
2018-06-16T11:10:09.077Z,1205
2018-06-16T11:11:19.730Z,1370
2018-06-16T11:12:30.065Z,2940
2018-06-16T11:13:40.307Z,3055
2018-06-16T11:14:50.620Z,2735
2018-06-16T11:16:00.807Z,2905
2018-06-16T11:17:11.010Z,2950
2018-06-16T11:18:21.194Z,2295
2018-06-16T11:19:31.772Z,2990
2018-06-16T11:20:42.168Z,2755
2018-06-16T11:21:52.359Z,1270
2018-06-16T11:23:02.647Z,1525
2018-06-16T11:24:13.186Z,1130
2018-06-16T11:25:23.422Z,2730
2018-06-16T11:26:33.596Z,955
2018-06-16T11:27:43.808Z,970
2018-06-16T11:28:54.047Z,1460
2018-06-16T11:30:04.353Z,2840
2018-06-16T11:31:14.638Z,3030
2018-06-16T11:32:24.968Z,3040
2018-06-16T11:33:35.425Z,2710
2018-06-16T11:34:45.660Z,2875
2018-06-16T11:35:55.945Z,2945
2018-06-16T11:37:38.064Z,3060
2018-06-16T11:38:48.262Z,2965
2018-06-16T11:39:58.454Z,3085
2018-06-16T11:41:08.670Z,2770
2018-06-16T11:42:18.853Z,3020
2018-06-16T11:43:29.018Z,2450
2018-06-16T11:44:39.443Z,2800
2018-06-16T11:45:49.716Z,2990
2018-06-16T11:47:00.018Z,2995
2018-06-16T11:48:10.294Z,3100
2018-06-16T11:49:20.635Z,2990
2018-06-16T11:50:30.903Z,2915
2018-06-16T11:51:41.157Z,2960
2018-06-16T11:52:51.347Z,2790
2018-06-16T11:54:01.340Z,2775
2018-06-16T11:55:11.717Z,2720
2018-06-16T11:56:21.938Z,1650
2018-06-16T11:57:32.231Z,2415
2018-06-16T11:58:42.490Z,2655
2018-06-16T11:59:52.738Z,2680
2018-06-16T12:01:02.950Z,2675
2018-06-16T12:02:13.160Z,2445
2018-06-16T12:03:23.409Z,2205
2018-06-16T12:04:33.797Z,1855
2018-06-16T12:05:44.019Z,2220
2018-06-16T12:06:54.272Z,1255
2018-06-16T12:08:04.483Z,1470
2018-06-16T12:09:14.680Z,2450
2018-06-16T12:10:25.209Z,1970
2018-06-16T12:11:36.358Z,1210
2018-06-16T12:12:46.577Z,1570
2018-06-16T12:13:56.856Z,2385
2018-06-16T12:15:07.086Z,2490
2018-06-16T12:16:17.550Z,2895
2018-06-16T12:17:27.806Z,2970
2018-06-16T12:18:38.000Z,3085
2018-06-16T12:19:48.227Z,2995
2018-06-16T12:20:58.463Z,2875
2018-06-16T12:22:08.767Z,1935
2018-06-16T12:23:19.014Z,2735
2018-06-16T12:24:29.236Z,1180
2018-06-16T12:25:39.492Z,2730
2018-06-16T12:26:49.807Z,2800
2018-06-16T12:28:00.163Z,2755
2018-06-16T12:29:10.509Z,2660
2018-06-16T12:30:20.469Z,1830
2018-06-16T12:31:30.641Z,2125
2018-06-16T12:32:40.846Z,1655
2018-06-16T12:33:51.276Z,2535
2018-06-16T12:35:01.601Z,2820
2018-06-16T12:36:11.833Z,2780
2018-06-16T12:37:22.037Z,1615
2018-06-16T12:38:32.820Z,2510
2018-06-16T12:39:43.038Z,2560
2018-06-16T12:40:53.254Z,2615
2018-06-16T12:42:03.466Z,2695
2018-06-16T12:43:13.684Z,2790
2018-06-16T12:44:23.864Z,2605
2018-06-16T12:45:34.094Z,2710
2018-06-16T12:46:44.418Z,2735
2018-06-16T12:47:54.646Z,2735
2018-06-16T12:49:04.933Z,2560
2018-06-16T12:50:15.118Z,1290
2018-06-16T12:51:25.310Z,1400
2018-06-16T12:52:35.535Z,2210
2018-06-16T12:53:45.734Z,1120
2018-06-16T12:54:55.952Z,1270
2018-06-16T12:56:06.188Z,1315
2018-06-16T12:57:16.497Z,725
2018-06-16T12:58:27.996Z,665
2018-06-16T12:59:38.236Z,665
2018-06-16T13:00:49.302Z,650
2018-06-16T13:01:59.473Z,665
2018-06-16T13:03:09.721Z,700
2018-06-16T13:04:20.110Z,780
2018-06-16T13:05:30.341Z,905
2018-06-16T13:06:40.552Z,1540
2018-06-16T13:07:50.748Z,1090
2018-06-16T13:09:00.947Z,2140
2018-06-16T13:10:11.138Z,1110
2018-06-16T13:11:21.397Z,1495
2018-06-16T13:12:31.773Z,2280
2018-06-16T13:13:42.134Z,2000
2018-06-16T13:14:52.323Z,2105
2018-06-16T13:16:02.556Z,1880
2018-06-16T13:17:12.732Z,1870
2018-06-16T13:18:23.293Z,1525
2018-06-16T13:19:33.441Z,1420
2018-06-16T13:20:43.753Z,1700
2018-06-16T13:21:53.976Z,1460
2018-06-16T13:23:04.199Z,885
2018-06-16T13:24:14.409Z,1635
2018-06-16T13:25:24.637Z,870
2018-06-16T13:26:34.827Z,1510
2018-06-16T13:27:45.037Z,590
2018-06-16T13:28:55.459Z,555
2018-06-16T13:30:05.619Z,535
2018-06-16T13:31:15.842Z,510
2018-06-16T13:32:26.281Z,485
2018-06-16T13:33:36.571Z,440
2018-06-16T13:34:46.795Z,420
2018-06-16T13:35:56.985Z,400
2018-06-16T13:37:07.185Z,385
2018-06-16T13:38:17.142Z,400
2018-06-16T13:39:27.379Z,430
2018-06-16T13:40:37.575Z,445
2018-06-16T13:41:47.881Z,450
2018-06-16T13:42:58.364Z,470
2018-06-16T13:44:08.583Z,485
2018-06-16T13:45:19.072Z,510
2018-06-16T13:46:29.261Z,540
2018-06-16T13:47:39.674Z,585
2018-06-16T13:48:50.164Z,655
2018-06-16T13:50:00.394Z,760
2018-06-16T13:51:10.340Z,895
2018-06-16T13:52:20.581Z,1300
2018-06-16T13:53:31.841Z,1490
2018-06-16T13:54:42.101Z,1165
2018-06-16T13:55:52.312Z,1050
2018-06-16T13:57:02.562Z,1300
2018-06-16T13:58:12.498Z,1350
2018-06-16T13:59:22.704Z,1225
2018-06-16T14:00:33.192Z,1275
2018-06-16T14:01:43.624Z,960
2018-06-16T14:02:53.830Z,745
2018-06-16T14:04:04.024Z,840
2018-06-16T14:05:14.465Z,1010
2018-06-16T14:06:24.714Z,1230
2018-06-16T14:07:34.940Z,1300
2018-06-16T14:08:45.179Z,1140
2018-06-16T14:09:55.405Z,660
2018-06-16T14:11:05.662Z,645
2018-06-16T14:12:15.655Z,670
2018-06-16T14:13:25.868Z,1315
2018-06-16T14:14:36.086Z,1110
2018-06-16T14:15:46.429Z,1840
2018-06-16T14:16:56.744Z,1885
2018-06-16T14:18:07.024Z,1985
2018-06-16T14:19:17.280Z,1950
2018-06-16T14:20:27.481Z,2050
2018-06-16T14:21:37.804Z,1930
2018-06-16T14:22:48.014Z,1840
2018-06-16T14:23:57.715Z,1885
2018-06-16T14:25:07.952Z,1835
2018-06-16T14:26:18.188Z,1470
2018-06-16T14:27:28.700Z,1415
2018-06-16T14:28:42.442Z,590
2018-06-16T14:29:52.658Z,1140
2018-06-16T14:31:02.929Z,460
2018-06-16T14:32:12.873Z,635
2018-06-16T14:33:23.080Z,385
2018-06-16T14:34:33.247Z,380
2018-06-16T14:35:43.433Z,445
2018-06-16T14:36:53.704Z,590
2018-06-16T14:38:03.895Z,945
2018-06-16T14:39:14.087Z,860
2018-06-16T14:40:24.331Z,750
2018-06-16T14:41:34.513Z,675
2018-06-16T14:42:44.969Z,630
2018-06-16T14:43:55.401Z,515
2018-06-16T14:45:05.610Z,490
2018-06-16T14:46:15.966Z,480
2018-06-16T14:47:26.204Z,500
2018-06-16T14:48:36.411Z,535
2018-06-16T14:49:46.612Z,565
2018-06-16T14:50:56.803Z,580
2018-06-16T14:52:06.986Z,685
2018-06-16T14:53:17.153Z,615
2018-06-16T14:54:27.441Z,1035
2018-06-16T14:55:37.878Z,1335
2018-06-16T14:56:48.098Z,1180
2018-06-16T14:57:58.378Z,825
2018-06-16T14:59:09.607Z,1050
2018-06-16T15:00:19.914Z,1015
2018-06-16T15:01:30.138Z,890
2018-06-16T15:02:40.345Z,825
2018-06-16T15:03:50.529Z,675
2018-06-16T15:05:01.795Z,620
2018-06-16T15:06:12.150Z,565
2018-06-16T15:07:22.358Z,590
2018-06-16T15:08:32.567Z,580
2018-06-16T15:09:42.771Z,570
2018-06-16T15:10:52.984Z,570
2018-06-16T15:12:03.199Z,570
2018-06-16T15:13:13.392Z,550
2018-06-16T15:14:23.588Z,515
2018-06-16T15:15:33.766Z,500
2018-06-16T15:16:44.010Z,515
2018-06-16T15:17:53.827Z,525
2018-06-16T15:19:04.017Z,525
2018-06-16T15:20:14.185Z,520
2018-06-16T15:21:24.339Z,520
2018-06-16T15:22:34.262Z,540
2018-06-16T15:23:44.413Z,550
2018-06-16T15:24:54.644Z,555
2018-06-16T15:26:04.843Z,530
2018-06-16T15:27:14.690Z,515
2018-06-16T15:28:24.890Z,505
2018-06-16T15:29:35.151Z,490
2018-06-16T15:30:45.308Z,505
2018-06-16T15:31:55.526Z,495
2018-06-16T15:33:05.797Z,485
2018-06-16T15:34:16.034Z,475
2018-06-16T15:35:26.271Z,480
2018-06-16T15:36:36.458Z,470
2018-06-16T15:37:46.690Z,460
2018-06-16T15:38:56.871Z,455
2018-06-16T15:40:07.122Z,455
2018-06-16T15:41:17.374Z,450
2018-06-16T15:42:27.465Z,440
2018-06-16T15:43:37.734Z,425
2018-06-16T15:44:47.964Z,425
2018-06-16T15:45:58.185Z,420
2018-06-16T15:47:08.401Z,410
2018-06-16T15:48:18.582Z,405
2018-06-16T15:49:28.775Z,395
2018-06-16T15:50:38.996Z,395
2018-06-16T15:51:49.252Z,390
2018-06-16T15:52:59.428Z,380
2018-06-16T15:54:09.657Z,360
2018-06-16T15:55:19.894Z,345
2018-06-16T15:56:30.105Z,335
2018-06-16T15:57:40.320Z,335
2018-06-16T15:58:50.580Z,325
2018-06-16T16:00:00.813Z,325
2018-06-16T16:01:10.848Z,325
2018-06-16T16:02:21.122Z,320
2018-06-16T16:03:31.440Z,310
2018-06-16T16:04:41.689Z,305
2018-06-16T16:05:52.313Z,295
2018-06-16T16:07:02.554Z,285
2018-06-16T16:08:12.809Z,275
2018-06-16T16:09:23.057Z,265
2018-06-16T16:10:33.276Z,260
2018-06-16T16:11:43.481Z,260
2018-06-16T16:12:54.220Z,250
2018-06-16T16:14:04.492Z,245
2018-06-16T16:15:14.685Z,245
2018-06-16T16:16:25.853Z,240